sensor_id;sensor_type;location;lat;lon;timestamp;P1;durP1;ratioP1;P2;durP2;ratioP2
4686;SDS011;2357;47.316;-1.348;2023-02-17T00:01:15;12.93;;;5.07;;
4686;SDS011;2357;47.316;-1.348;2023-02-17T00:03:41;5.53;;;5.07;;
4686;SDS011;2357;47.316;-1.348;2023-02-17T00:06:08;8.43;;;5.67;;
4686;SDS011;2357;47.316;-1.348;2023-02-17T00:08:35;7.27;;;6.57;;
4686;SDS011;2357;47.316;-1.348;2023-02-17T00:11:01;6.43;;;5.53;;
4686;SDS011;2357;47.316;-1.348;2023-02-17T00:13:27;6.40;;;5.77;;
4686;SDS011;2357;47.316;-1.348;2023-02-17T00:15:53;5.83;;;5.33;;
4686;SDS011;2357;47.316;-1.348;2023-02-17T00:18:19;5.97;;;5.43;;
4686;SDS011;2357;47.316;-1.348;2023-02-17T00:20:44;7.03;;;6.40;;
4686;SDS011;2357;47.316;-1.348;2023-02-17T00:23:10;8.17;;;6.50;;
4686;SDS011;2357;47.316;-1.348;2023-02-17T00:25:36;5.70;;;5.20;;
4686;SDS011;2357;47.316;-1.348;2023-02-17T00:28:03;7.30;;;5.67;;
4686;SDS011;2357;47.316;-1.348;2023-02-17T00:30:29;5.67;;;5.00;;
4686;SDS011;2357;47.316;-1.348;2023-02-17T00:32:54;12.70;;;6.27;;
4686;SDS011;2357;47.316;-1.348;2023-02-17T00:35:20;8.70;;;6.40;;
4686;SDS011;2357;47.316;-1.348;2023-02-17T00:37:46;24.77;;;7.33;;
4686;SDS011;2357;47.316;-1.348;2023-02-17T00:40:12;16.13;;;6.43;;
4686;SDS011;2357;47.316;-1.348;2023-02-17T00:42:38;15.73;;;6.57;;
4686;SDS011;2357;47.316;-1.348;2023-02-17T00:45:04;25.17;;;7.80;;
4686;SDS011;2357;47.316;-1.348;2023-02-17T00:47:30;8.13;;;6.00;;
4686;SDS011;2357;47.316;-1.348;2023-02-17T00:49:55;8.97;;;6.37;;
4686;SDS011;2357;47.316;-1.348;2023-02-17T00:52:21;9.97;;;6.40;;
4686;SDS011;2357;47.316;-1.348;2023-02-17T00:54:47;21.63;;;6.20;;
4686;SDS011;2357;47.316;-1.348;2023-02-17T00:57:13;26.03;;;7.83;;
4686;SDS011;2357;47.316;-1.348;2023-02-17T00:59:38;9.10;;;5.70;;
4686;SDS011;2357;47.316;-1.348;2023-02-17T01:02:04;16.17;;;6.13;;
4686;SDS011;2357;47.316;-1.348;2023-02-17T01:04:30;13.73;;;6.20;;
4686;SDS011;2357;47.316;-1.348;2023-02-17T01:06:55;14.17;;;6.83;;
4686;SDS011;2357;47.316;-1.348;2023-02-17T01:09:21;11.97;;;5.87;;
4686;SDS011;2357;47.316;-1.348;2023-02-17T01:11:47;7.80;;;6.17;;
4686;SDS011;2357;47.316;-1.348;2023-02-17T01:14:12;7.10;;;5.37;;
4686;SDS011;2357;47.316;-1.348;2023-02-17T01:16:40;8.20;;;6.20;;
4686;SDS011;2357;47.316;-1.348;2023-02-17T01:19:10;7.83;;;6.00;;
4686;SDS011;2357;47.316;-1.348;2023-02-17T01:21:38;8.60;;;6.60;;
4686;SDS011;2357;47.316;-1.348;2023-02-17T01:24:04;6.73;;;6.03;;
4686;SDS011;2357;47.316;-1.348;2023-02-17T01:26:32;9.53;;;6.57;;
4686;SDS011;2357;47.316;-1.348;2023-02-17T01:28:58;8.13;;;6.63;;
4686;SDS011;2357;47.316;-1.348;2023-02-17T01:31:24;6.90;;;6.20;;
4686;SDS011;2357;47.316;-1.348;2023-02-17T01:33:57;9.07;;;5.67;;
4686;SDS011;2357;47.316;-1.348;2023-02-17T01:36:24;6.87;;;5.90;;
4686;SDS011;2357;47.316;-1.348;2023-02-17T01:38:50;6.70;;;5.40;;
4686;SDS011;2357;47.316;-1.348;2023-02-17T01:41:17;12.77;;;5.63;;
4686;SDS011;2357;47.316;-1.348;2023-02-17T01:46:42;6.97;;;4.87;;
4686;SDS011;2357;47.316;-1.348;2023-02-17T01:49:16;9.17;;;5.60;;
4686;SDS011;2357;47.316;-1.348;2023-02-17T01:51:42;4.70;;;4.30;;
4686;SDS011;2357;47.316;-1.348;2023-02-17T01:54:12;6.60;;;5.63;;
4686;SDS011;2357;47.316;-1.348;2023-02-17T01:56:43;6.03;;;5.33;;
4686;SDS011;2357;47.316;-1.348;2023-02-17T01:59:11;5.53;;;4.67;;
4686;SDS011;2357;47.316;-1.348;2023-02-17T02:01:41;5.83;;;5.17;;
4686;SDS011;2357;47.316;-1.348;2023-02-17T02:04:07;7.80;;;5.43;;
4686;SDS011;2357;47.316;-1.348;2023-02-17T02:06:34;8.70;;;5.70;;
4686;SDS011;2357;47.316;-1.348;2023-02-17T02:09:03;5.43;;;4.87;;
4686;SDS011;2357;47.316;-1.348;2023-02-17T02:11:30;8.33;;;5.30;;
4686;SDS011;2357;47.316;-1.348;2023-02-17T02:13:56;6.70;;;6.00;;
4686;SDS011;2357;47.316;-1.348;2023-02-17T02:22:11;6.20;;;4.83;;
4686;SDS011;2357;47.316;-1.348;2023-02-17T02:28:02;4.93;;;3.90;;
4686;SDS011;2357;47.316;-1.348;2023-02-17T02:35:41;6.47;;;4.60;;
4686;SDS011;2357;47.316;-1.348;2023-02-17T02:40:53;5.13;;;4.67;;
4686;SDS011;2357;47.316;-1.348;2023-02-17T02:43:26;4.50;;;4.00;;
4686;SDS011;2357;47.316;-1.348;2023-02-17T02:45:53;5.47;;;4.97;;
4686;SDS011;2357;47.316;-1.348;2023-02-17T02:48:19;5.43;;;4.93;;
4686;SDS011;2357;47.316;-1.348;2023-02-17T03:10:13;6.57;;;4.50;;
4686;SDS011;2357;47.316;-1.348;2023-02-17T03:12:40;43.60;;;5.70;;
4686;SDS011;2357;47.316;-1.348;2023-02-17T03:15:17;95.13;;;8.40;;
4686;SDS011;2357;47.316;-1.348;2023-02-17T03:17:49;14.53;;;5.30;;
4686;SDS011;2357;47.316;-1.348;2023-02-17T03:20:14;21.43;;;6.77;;
4686;SDS011;2357;47.316;-1.348;2023-02-17T03:22:42;19.30;;;5.93;;
4686;SDS011;2357;47.316;-1.348;2023-02-17T03:25:11;26.40;;;7.83;;
4686;SDS011;2357;47.316;-1.348;2023-02-17T03:27:37;33.90;;;7.20;;
4686;SDS011;2357;47.316;-1.348;2023-02-17T03:30:03;20.10;;;6.70;;
4686;SDS011;2357;47.316;-1.348;2023-02-17T03:32:30;20.93;;;7.67;;
4686;SDS011;2357;47.316;-1.348;2023-02-17T03:34:55;12.23;;;6.97;;
4686;SDS011;2357;47.316;-1.348;2023-02-17T03:37:21;15.13;;;6.40;;
4686;SDS011;2357;47.316;-1.348;2023-02-17T03:39:46;8.70;;;5.17;;
4686;SDS011;2357;47.316;-1.348;2023-02-17T03:42:12;6.73;;;5.50;;
4686;SDS011;2357;47.316;-1.348;2023-02-17T03:44:38;8.40;;;6.10;;
4686;SDS011;2357;47.316;-1.348;2023-02-17T03:47:04;13.50;;;6.50;;
4686;SDS011;2357;47.316;-1.348;2023-02-17T03:49:29;9.17;;;6.50;;
4686;SDS011;2357;47.316;-1.348;2023-02-17T03:51:55;11.27;;;5.70;;
4686;SDS011;2357;47.316;-1.348;2023-02-17T03:54:22;13.47;;;7.20;;
4686;SDS011;2357;47.316;-1.348;2023-02-17T03:56:47;8.77;;;5.47;;
4686;SDS011;2357;47.316;-1.348;2023-02-17T03:59:13;18.07;;;8.33;;
4686;SDS011;2357;47.316;-1.348;2023-02-17T04:01:39;9.63;;;6.27;;
4686;SDS011;2357;47.316;-1.348;2023-02-17T04:04:04;10.27;;;5.93;;
4686;SDS011;2357;47.316;-1.348;2023-02-17T04:06:30;10.97;;;6.30;;
4686;SDS011;2357;47.316;-1.348;2023-02-17T04:08:55;14.03;;;6.60;;
4686;SDS011;2357;47.316;-1.348;2023-02-17T04:11:21;8.93;;;6.07;;
4686;SDS011;2357;47.316;-1.348;2023-02-17T04:13:47;9.00;;;5.57;;
4686;SDS011;2357;47.316;-1.348;2023-02-17T04:16:12;7.43;;;5.70;;
4686;SDS011;2357;47.316;-1.348;2023-02-17T04:18:38;8.53;;;6.27;;
4686;SDS011;2357;47.316;-1.348;2023-02-17T04:21:04;8.63;;;6.13;;
4686;SDS011;2357;47.316;-1.348;2023-02-17T04:23:30;6.60;;;6.00;;
4686;SDS011;2357;47.316;-1.348;2023-02-17T04:25:56;9.53;;;6.07;;
4686;SDS011;2357;47.316;-1.348;2023-02-17T04:28:22;9.47;;;6.47;;
4686;SDS011;2357;47.316;-1.348;2023-02-17T04:30:48;12.03;;;6.20;;
4686;SDS011;2357;47.316;-1.348;2023-02-17T04:33:15;11.13;;;6.53;;
4686;SDS011;2357;47.316;-1.348;2023-02-17T04:35:41;12.00;;;6.40;;
4686;SDS011;2357;47.316;-1.348;2023-02-17T04:38:08;10.57;;;5.93;;
4686;SDS011;2357;47.316;-1.348;2023-02-17T04:40:34;7.50;;;6.40;;
4686;SDS011;2357;47.316;-1.348;2023-02-17T04:43:01;8.23;;;6.07;;
4686;SDS011;2357;47.316;-1.348;2023-02-17T04:45:27;10.90;;;5.87;;
4686;SDS011;2357;47.316;-1.348;2023-02-17T04:47:52;7.30;;;5.97;;
4686;SDS011;2357;47.316;-1.348;2023-02-17T04:50:18;8.57;;;6.00;;
4686;SDS011;2357;47.316;-1.348;2023-02-17T04:52:44;7.80;;;5.83;;
4686;SDS011;2357;47.316;-1.348;2023-02-17T04:55:09;6.97;;;5.97;;
4686;SDS011;2357;47.316;-1.348;2023-02-17T04:57:35;14.53;;;6.60;;
4686;SDS011;2357;47.316;-1.348;2023-02-17T05:00:02;11.27;;;5.20;;
4686;SDS011;2357;47.316;-1.348;2023-02-17T05:02:28;7.33;;;6.00;;
4686;SDS011;2357;47.316;-1.348;2023-02-17T05:04:54;7.57;;;5.70;;
4686;SDS011;2357;47.316;-1.348;2023-02-17T05:07:20;6.17;;;5.27;;
4686;SDS011;2357;47.316;-1.348;2023-02-17T05:09:46;7.43;;;5.90;;
4686;SDS011;2357;47.316;-1.348;2023-02-17T05:12:12;5.47;;;4.50;;
4686;SDS011;2357;47.316;-1.348;2023-02-17T05:14:38;5.37;;;4.30;;
4686;SDS011;2357;47.316;-1.348;2023-02-17T05:17:04;4.70;;;4.30;;
4686;SDS011;2357;47.316;-1.348;2023-02-17T05:19:29;5.07;;;4.53;;
4686;SDS011;2357;47.316;-1.348;2023-02-17T05:21:55;5.07;;;4.50;;
4686;SDS011;2357;47.316;-1.348;2023-02-17T05:24:21;4.23;;;3.80;;
4686;SDS011;2357;47.316;-1.348;2023-02-17T05:26:47;6.77;;;4.53;;
4686;SDS011;2357;47.316;-1.348;2023-02-17T05:29:12;5.57;;;4.53;;
4686;SDS011;2357;47.316;-1.348;2023-02-17T05:31:38;7.10;;;4.50;;
4686;SDS011;2357;47.316;-1.348;2023-02-17T05:34:04;8.43;;;5.50;;
4686;SDS011;2357;47.316;-1.348;2023-02-17T05:36:29;8.03;;;5.87;;
4686;SDS011;2357;47.316;-1.348;2023-02-17T05:38:55;8.93;;;5.80;;
4686;SDS011;2357;47.316;-1.348;2023-02-17T05:41:21;7.60;;;5.77;;
4686;SDS011;2357;47.316;-1.348;2023-02-17T05:43:46;8.03;;;5.83;;
4686;SDS011;2357;47.316;-1.348;2023-02-17T05:46:13;8.30;;;6.17;;
4686;SDS011;2357;47.316;-1.348;2023-02-17T05:48:39;8.80;;;6.07;;
4686;SDS011;2357;47.316;-1.348;2023-02-17T05:51:05;9.57;;;5.50;;
4686;SDS011;2357;47.316;-1.348;2023-02-17T05:53:31;8.10;;;5.83;;
4686;SDS011;2357;47.316;-1.348;2023-02-17T05:55:57;7.67;;;5.90;;
4686;SDS011;2357;47.316;-1.348;2023-02-17T05:58:22;9.27;;;5.43;;
4686;SDS011;2357;47.316;-1.348;2023-02-17T06:00:48;10.43;;;5.80;;
4686;SDS011;2357;47.316;-1.348;2023-02-17T06:03:14;7.80;;;5.70;;
4686;SDS011;2357;47.316;-1.348;2023-02-17T06:05:40;8.47;;;4.97;;
4686;SDS011;2357;47.316;-1.348;2023-02-17T06:08:06;7.77;;;5.13;;
4686;SDS011;2357;47.316;-1.348;2023-02-17T06:10:32;5.50;;;5.00;;
4686;SDS011;2357;47.316;-1.348;2023-02-17T06:12:58;5.87;;;4.67;;
4686;SDS011;2357;47.316;-1.348;2023-02-17T06:15:23;9.90;;;6.13;;
4686;SDS011;2357;47.316;-1.348;2023-02-17T06:17:49;12.03;;;7.33;;
4686;SDS011;2357;47.316;-1.348;2023-02-17T06:20:15;10.30;;;5.43;;
4686;SDS011;2357;47.316;-1.348;2023-02-17T06:22:41;17.90;;;8.10;;
4686;SDS011;2357;47.316;-1.348;2023-02-17T06:25:07;12.53;;;7.53;;
4686;SDS011;2357;47.316;-1.348;2023-02-17T06:27:33;11.00;;;7.20;;
4686;SDS011;2357;47.316;-1.348;2023-02-17T06:29:59;10.87;;;7.00;;
4686;SDS011;2357;47.316;-1.348;2023-02-17T06:32:25;6.57;;;5.20;;
4686;SDS011;2357;47.316;-1.348;2023-02-17T06:34:51;7.33;;;5.60;;
4686;SDS011;2357;47.316;-1.348;2023-02-17T06:37:16;11.97;;;5.53;;
4686;SDS011;2357;47.316;-1.348;2023-02-17T06:39:42;7.40;;;4.80;;
4686;SDS011;2357;47.316;-1.348;2023-02-17T06:42:08;8.10;;;5.40;;
4686;SDS011;2357;47.316;-1.348;2023-02-17T06:44:34;9.33;;;6.00;;
4686;SDS011;2357;47.316;-1.348;2023-02-17T06:47:00;48.13;;;6.67;;
4686;SDS011;2357;47.316;-1.348;2023-02-17T06:49:25;15.60;;;5.07;;
4686;SDS011;2357;47.316;-1.348;2023-02-17T06:51:51;7.50;;;5.83;;
4686;SDS011;2357;47.316;-1.348;2023-02-17T06:54:17;10.57;;;5.70;;
4686;SDS011;2357;47.316;-1.348;2023-02-17T06:56:42;36.67;;;7.03;;
4686;SDS011;2357;47.316;-1.348;2023-02-17T06:59:08;34.53;;;7.63;;
4686;SDS011;2357;47.316;-1.348;2023-02-17T07:01:34;18.50;;;7.17;;
4686;SDS011;2357;47.316;-1.348;2023-02-17T07:03:59;95.93;;;9.97;;
4686;SDS011;2357;47.316;-1.348;2023-02-17T07:06:25;96.10;;;12.77;;
4686;SDS011;2357;47.316;-1.348;2023-02-17T07:08:51;63.87;;;8.30;;
4686;SDS011;2357;47.316;-1.348;2023-02-17T07:11:16;27.50;;;6.33;;
4686;SDS011;2357;47.316;-1.348;2023-02-17T07:13:43;34.20;;;7.03;;
4686;SDS011;2357;47.316;-1.348;2023-02-17T07:16:09;35.23;;;7.00;;
4686;SDS011;2357;47.316;-1.348;2023-02-17T07:18:36;26.33;;;7.70;;
4686;SDS011;2357;47.316;-1.348;2023-02-17T07:21:02;43.37;;;9.63;;
4686;SDS011;2357;47.316;-1.348;2023-02-17T07:23:29;43.83;;;7.47;;
4686;SDS011;2357;47.316;-1.348;2023-02-17T07:25:55;23.57;;;7.47;;
4686;SDS011;2357;47.316;-1.348;2023-02-17T07:28:21;26.50;;;7.73;;
4686;SDS011;2357;47.316;-1.348;2023-02-17T07:30:46;70.37;;;9.20;;
4686;SDS011;2357;47.316;-1.348;2023-02-17T07:33:12;26.53;;;8.23;;
4686;SDS011;2357;47.316;-1.348;2023-02-17T07:35:41;59.80;;;9.43;;
4686;SDS011;2357;47.316;-1.348;2023-02-17T07:38:10;21.90;;;8.87;;
4686;SDS011;2357;47.316;-1.348;2023-02-17T07:40:36;45.50;;;10.70;;
4686;SDS011;2357;47.316;-1.348;2023-02-17T07:43:02;47.10;;;11.70;;
4686;SDS011;2357;47.316;-1.348;2023-02-17T07:45:28;32.93;;;9.50;;
4686;SDS011;2357;47.316;-1.348;2023-02-17T07:47:53;68.07;;;11.27;;
4686;SDS011;2357;47.316;-1.348;2023-02-17T07:50:19;43.77;;;10.70;;
4686;SDS011;2357;47.316;-1.348;2023-02-17T07:52:45;26.27;;;10.37;;
4686;SDS011;2357;47.316;-1.348;2023-02-17T07:55:10;94.23;;;15.27;;
4686;SDS011;2357;47.316;-1.348;2023-02-17T07:57:36;169.73;;;13.83;;
4686;SDS011;2357;47.316;-1.348;2023-02-17T08:00:02;78.33;;;9.83;;
4686;SDS011;2357;47.316;-1.348;2023-02-17T08:02:29;42.77;;;8.97;;
4686;SDS011;2357;47.316;-1.348;2023-02-17T08:04:54;56.47;;;9.40;;
4686;SDS011;2357;47.316;-1.348;2023-02-17T08:07:20;97.40;;;13.90;;
4686;SDS011;2357;47.316;-1.348;2023-02-17T08:09:45;98.33;;;14.37;;
4686;SDS011;2357;47.316;-1.348;2023-02-17T08:12:29;58.23;;;11.77;;
4686;SDS011;2357;47.316;-1.348;2023-02-17T08:15:14;58.97;;;11.97;;
4686;SDS011;2357;47.316;-1.348;2023-02-17T08:17:39;39.37;;;9.00;;
4686;SDS011;2357;47.316;-1.348;2023-02-17T08:20:05;34.63;;;9.47;;
4686;SDS011;2357;47.316;-1.348;2023-02-17T08:22:31;38.93;;;10.80;;
4686;SDS011;2357;47.316;-1.348;2023-02-17T08:24:57;117.13;;;13.03;;
4686;SDS011;2357;47.316;-1.348;2023-02-17T08:27:23;153.50;;;17.20;;
4686;SDS011;2357;47.316;-1.348;2023-02-17T08:29:48;68.33;;;14.03;;
4686;SDS011;2357;47.316;-1.348;2023-02-17T08:32:15;83.43;;;13.33;;
4686;SDS011;2357;47.316;-1.348;2023-02-17T08:34:41;29.20;;;11.27;;
4686;SDS011;2357;47.316;-1.348;2023-02-17T08:37:08;32.80;;;11.47;;
4686;SDS011;2357;47.316;-1.348;2023-02-17T08:39:34;71.17;;;11.63;;
4686;SDS011;2357;47.316;-1.348;2023-02-17T08:42:01;31.67;;;12.30;;
4686;SDS011;2357;47.316;-1.348;2023-02-17T08:44:27;45.20;;;11.90;;
4686;SDS011;2357;47.316;-1.348;2023-02-17T08:46:52;96.73;;;14.00;;
4686;SDS011;2357;47.316;-1.348;2023-02-17T08:49:21;35.90;;;10.60;;
4686;SDS011;2357;47.316;-1.348;2023-02-17T08:51:49;96.93;;;11.60;;
4686;SDS011;2357;47.316;-1.348;2023-02-17T08:54:16;117.37;;;14.40;;
4686;SDS011;2357;47.316;-1.348;2023-02-17T08:56:42;35.83;;;10.60;;
4686;SDS011;2357;47.316;-1.348;2023-02-17T08:59:08;95.20;;;11.70;;
4686;SDS011;2357;47.316;-1.348;2023-02-17T09:01:35;109.87;;;13.40;;
4686;SDS011;2357;47.316;-1.348;2023-02-17T09:04:02;144.00;;;15.73;;
4686;SDS011;2357;47.316;-1.348;2023-02-17T09:06:39;102.10;;;14.33;;
4686;SDS011;2357;47.316;-1.348;2023-02-17T09:09:10;70.93;;;11.27;;
4686;SDS011;2357;47.316;-1.348;2023-02-17T09:11:37;41.27;;;10.03;;
4686;SDS011;2357;47.316;-1.348;2023-02-17T09:14:03;115.57;;;13.80;;
4686;SDS011;2357;47.316;-1.348;2023-02-17T09:16:30;42.70;;;9.57;;
4686;SDS011;2357;47.316;-1.348;2023-02-17T09:18:56;71.60;;;11.40;;
4686;SDS011;2357;47.316;-1.348;2023-02-17T09:21:22;39.73;;;11.20;;
4686;SDS011;2357;47.316;-1.348;2023-02-17T09:23:48;35.77;;;10.00;;
4686;SDS011;2357;47.316;-1.348;2023-02-17T09:26:14;132.37;;;12.70;;
4686;SDS011;2357;47.316;-1.348;2023-02-17T09:28:41;89.50;;;13.47;;
4686;SDS011;2357;47.316;-1.348;2023-02-17T09:31:08;24.63;;;8.20;;
4686;SDS011;2357;47.316;-1.348;2023-02-17T09:33:39;25.60;;;7.73;;
4686;SDS011;2357;47.316;-1.348;2023-02-17T09:36:05;37.37;;;9.77;;
4686;SDS011;2357;47.316;-1.348;2023-02-17T09:38:33;23.17;;;8.03;;
4686;SDS011;2357;47.316;-1.348;2023-02-17T09:41:03;20.73;;;8.33;;
4686;SDS011;2357;47.316;-1.348;2023-02-17T09:43:53;22.67;;;11.00;;
4686;SDS011;2357;47.316;-1.348;2023-02-17T09:48:48;21.67;;;11.07;;
4686;SDS011;2357;47.316;-1.348;2023-02-17T09:51:17;22.50;;;10.30;;
4686;SDS011;2357;47.316;-1.348;2023-02-17T09:54:04;20.37;;;9.50;;
4686;SDS011;2357;47.316;-1.348;2023-02-17T09:56:39;15.40;;;9.10;;
4686;SDS011;2357;47.316;-1.348;2023-02-17T09:59:19;15.17;;;7.40;;
4686;SDS011;2357;47.316;-1.348;2023-02-17T10:01:56;16.37;;;9.00;;
4686;SDS011;2357;47.316;-1.348;2023-02-17T10:04:28;12.50;;;8.23;;
4686;SDS011;2357;47.316;-1.348;2023-02-17T10:07:10;10.20;;;7.17;;
4686;SDS011;2357;47.316;-1.348;2023-02-17T10:10:08;8.23;;;6.60;;
4686;SDS011;2357;47.316;-1.348;2023-02-17T10:12:40;10.93;;;7.50;;
4686;SDS011;2357;47.316;-1.348;2023-02-17T10:15:16;13.53;;;7.37;;
4686;SDS011;2357;47.316;-1.348;2023-02-17T10:23:51;9.10;;;6.90;;
4686;SDS011;2357;47.316;-1.348;2023-02-17T10:29:13;6.57;;;5.83;;
4686;SDS011;2357;47.316;-1.348;2023-02-17T10:34:33;6.03;;;5.27;;
4686;SDS011;2357;47.316;-1.348;2023-02-17T10:37:24;5.30;;;4.57;;
4686;SDS011;2357;47.316;-1.348;2023-02-17T10:40:20;4.27;;;4.00;;
4686;SDS011;2357;47.316;-1.348;2023-02-17T10:42:53;4.57;;;4.27;;
4686;SDS011;2357;47.316;-1.348;2023-02-17T10:45:25;5.73;;;4.70;;
4686;SDS011;2357;47.316;-1.348;2023-02-17T10:48:02;5.23;;;4.30;;
4686;SDS011;2357;47.316;-1.348;2023-02-17T10:50:32;5.03;;;4.53;;
4686;SDS011;2357;47.316;-1.348;2023-02-17T10:52:59;7.10;;;4.13;;
4686;SDS011;2357;47.316;-1.348;2023-02-17T10:55:37;3.00;;;2.90;;
4686;SDS011;2357;47.316;-1.348;2023-02-17T10:58:30;2.50;;;2.40;;
4686;SDS011;2357;47.316;-1.348;2023-02-17T11:01:09;3.10;;;2.90;;
4686;SDS011;2357;47.316;-1.348;2023-02-17T11:03:36;2.10;;;2.00;;
4686;SDS011;2357;47.316;-1.348;2023-02-17T11:06:05;2.30;;;2.20;;
4686;SDS011;2357;47.316;-1.348;2023-02-17T11:08:39;2.27;;;2.17;;
4686;SDS011;2357;47.316;-1.348;2023-02-17T11:11:22;2.90;;;2.50;;
4686;SDS011;2357;47.316;-1.348;2023-02-17T11:16:26;1.87;;;1.77;;
4686;SDS011;2357;47.316;-1.348;2023-02-17T11:18:56;2.77;;;2.07;;
4686;SDS011;2357;47.316;-1.348;2023-02-17T11:21:21;2.07;;;1.93;;
4686;SDS011;2357;47.316;-1.348;2023-02-17T11:23:53;2.30;;;2.10;;
4686;SDS011;2357;47.316;-1.348;2023-02-17T11:26:22;2.33;;;2.23;;
4686;SDS011;2357;47.316;-1.348;2023-02-17T11:28:49;2.70;;;2.50;;
4686;SDS011;2357;47.316;-1.348;2023-02-17T11:31:29;3.40;;;1.90;;
4686;SDS011;2357;47.316;-1.348;2023-02-17T11:33:55;2.60;;;2.20;;
4686;SDS011;2357;47.316;-1.348;2023-02-17T11:36:28;2.10;;;2.00;;
4686;SDS011;2357;47.316;-1.348;2023-02-17T11:38:55;2.30;;;2.20;;
4686;SDS011;2357;47.316;-1.348;2023-02-17T11:41:22;2.13;;;2.03;;
4686;SDS011;2357;47.316;-1.348;2023-02-17T11:43:55;2.00;;;1.90;;
4686;SDS011;2357;47.316;-1.348;2023-02-17T11:46:27;1.77;;;1.67;;
4686;SDS011;2357;47.316;-1.348;2023-02-17T11:54:51;2.50;;;2.30;;
4686;SDS011;2357;47.316;-1.348;2023-02-17T12:13:43;2.63;;;2.43;;
4686;SDS011;2357;47.316;-1.348;2023-02-17T12:27:19;3.07;;;2.87;;
4686;SDS011;2357;47.316;-1.348;2023-02-17T12:37:53;4.00;;;2.97;;
4686;SDS011;2357;47.316;-1.348;2023-02-17T12:40:33;3.13;;;2.53;;
4686;SDS011;2357;47.316;-1.348;2023-02-17T12:43:17;3.57;;;3.37;;
4686;SDS011;2357;47.316;-1.348;2023-02-17T12:46:16;2.97;;;2.73;;
4686;SDS011;2357;47.316;-1.348;2023-02-17T12:48:49;3.60;;;2.90;;
4686;SDS011;2357;47.316;-1.348;2023-02-17T12:51:37;3.13;;;2.80;;
4686;SDS011;2357;47.316;-1.348;2023-02-17T12:54:17;2.80;;;2.47;;
4686;SDS011;2357;47.316;-1.348;2023-02-17T12:59:31;3.27;;;3.07;;
4686;SDS011;2357;47.316;-1.348;2023-02-17T13:04:30;4.20;;;3.20;;
4686;SDS011;2357;47.316;-1.348;2023-02-17T13:09:48;6.23;;;4.03;;
4686;SDS011;2357;47.316;-1.348;2023-02-17T13:12:16;4.40;;;4.10;;
4686;SDS011;2357;47.316;-1.348;2023-02-17T13:14:53;4.80;;;4.40;;
4686;SDS011;2357;47.316;-1.348;2023-02-17T13:17:22;5.37;;;4.87;;
4686;SDS011;2357;47.316;-1.348;2023-02-17T13:22:36;7.80;;;4.87;;
4686;SDS011;2357;47.316;-1.348;2023-02-17T13:25:02;5.27;;;4.43;;
4686;SDS011;2357;47.316;-1.348;2023-02-17T13:32:41;6.37;;;5.00;;
4686;SDS011;2357;47.316;-1.348;2023-02-17T13:37:40;7.20;;;4.87;;
4686;SDS011;2357;47.316;-1.348;2023-02-17T13:40:31;5.60;;;5.00;;
4686;SDS011;2357;47.316;-1.348;2023-02-17T13:42:56;5.97;;;4.47;;
4686;SDS011;2357;47.316;-1.348;2023-02-17T13:45:48;5.07;;;4.47;;
4686;SDS011;2357;47.316;-1.348;2023-02-17T13:48:32;4.70;;;4.40;;
4686;SDS011;2357;47.316;-1.348;2023-02-17T13:51:02;5.20;;;4.40;;
4686;SDS011;2357;47.316;-1.348;2023-02-17T13:53:34;4.97;;;4.00;;
4686;SDS011;2357;47.316;-1.348;2023-02-17T13:58:47;4.67;;;4.30;;
4686;SDS011;2357;47.316;-1.348;2023-02-17T14:01:14;5.10;;;4.30;;
4686;SDS011;2357;47.316;-1.348;2023-02-17T14:03:46;4.50;;;4.10;;
4686;SDS011;2357;47.316;-1.348;2023-02-17T14:06:21;5.63;;;4.30;;
4686;SDS011;2357;47.316;-1.348;2023-02-17T14:08:47;3.73;;;3.53;;
4686;SDS011;2357;47.316;-1.348;2023-02-17T14:11:23;4.00;;;3.70;;
4686;SDS011;2357;47.316;-1.348;2023-02-17T14:13:53;3.60;;;3.37;;
4686;SDS011;2357;47.316;-1.348;2023-02-17T14:21:35;4.90;;;4.50;;
4686;SDS011;2357;47.316;-1.348;2023-02-17T14:24:05;3.93;;;3.63;;
4686;SDS011;2357;47.316;-1.348;2023-02-17T14:29:13;3.73;;;3.43;;
4686;SDS011;2357;47.316;-1.348;2023-02-17T14:31:40;9.23;;;3.70;;
4686;SDS011;2357;47.316;-1.348;2023-02-17T14:34:29;4.67;;;4.37;;
4686;SDS011;2357;47.316;-1.348;2023-02-17T14:37:38;4.20;;;3.90;;
4686;SDS011;2357;47.316;-1.348;2023-02-17T14:39:49;3.77;;;3.50;;
4686;SDS011;2357;47.316;-1.348;2023-02-17T14:42:14;6.37;;;4.20;;
4686;SDS011;2357;47.316;-1.348;2023-02-17T14:44:40;5.00;;;3.90;;
4686;SDS011;2357;47.316;-1.348;2023-02-17T14:47:07;5.03;;;4.60;;
4686;SDS011;2357;47.316;-1.348;2023-02-17T14:49:32;8.23;;;3.97;;
4686;SDS011;2357;47.316;-1.348;2023-02-17T14:51:59;3.80;;;3.50;;
4686;SDS011;2357;47.316;-1.348;2023-02-17T14:54:25;3.97;;;3.57;;
4686;SDS011;2357;47.316;-1.348;2023-02-17T14:59:32;4.13;;;3.77;;
4686;SDS011;2357;47.316;-1.348;2023-02-17T15:01:58;4.07;;;3.77;;
4686;SDS011;2357;47.316;-1.348;2023-02-17T15:04:24;5.40;;;3.37;;
4686;SDS011;2357;47.316;-1.348;2023-02-17T15:06:50;6.20;;;3.77;;
4686;SDS011;2357;47.316;-1.348;2023-02-17T15:09:19;7.07;;;3.53;;
4686;SDS011;2357;47.316;-1.348;2023-02-17T15:11:54;5.63;;;3.20;;
4686;SDS011;2357;47.316;-1.348;2023-02-17T15:14:20;3.27;;;2.90;;
4686;SDS011;2357;47.316;-1.348;2023-02-17T15:16:46;3.83;;;3.43;;
4686;SDS011;2357;47.316;-1.348;2023-02-17T15:19:13;2.87;;;2.67;;
4686;SDS011;2357;47.316;-1.348;2023-02-17T15:21:42;9.57;;;5.27;;
4686;SDS011;2357;47.316;-1.348;2023-02-17T15:24:18;14.70;;;7.13;;
4686;SDS011;2357;47.316;-1.348;2023-02-17T15:26:46;6.03;;;4.73;;
4686;SDS011;2357;47.316;-1.348;2023-02-17T15:29:15;5.73;;;3.80;;
4686;SDS011;2357;47.316;-1.348;2023-02-17T15:31:43;3.40;;;2.83;;
4686;SDS011;2357;47.316;-1.348;2023-02-17T15:34:16;2.20;;;2.10;;
4686;SDS011;2357;47.316;-1.348;2023-02-17T15:36:44;2.73;;;2.50;;
4686;SDS011;2357;47.316;-1.348;2023-02-17T15:39:11;2.47;;;1.87;;
4686;SDS011;2357;47.316;-1.348;2023-02-17T15:41:38;2.47;;;2.37;;
4686;SDS011;2357;47.316;-1.348;2023-02-17T15:44:05;2.53;;;2.30;;
4686;SDS011;2357;47.316;-1.348;2023-02-17T15:46:36;2.33;;;2.23;;
4686;SDS011;2357;47.316;-1.348;2023-02-17T15:49:03;2.20;;;2.00;;
4686;SDS011;2357;47.316;-1.348;2023-02-17T15:51:29;7.50;;;2.07;;
4686;SDS011;2357;47.316;-1.348;2023-02-17T15:53:55;6.47;;;3.30;;
4686;SDS011;2357;47.316;-1.348;2023-02-17T15:56:25;2.60;;;2.40;;
4686;SDS011;2357;47.316;-1.348;2023-02-17T15:58:53;6.00;;;3.37;;
4686;SDS011;2357;47.316;-1.348;2023-02-17T16:03:49;3.00;;;2.80;;
4686;SDS011;2357;47.316;-1.348;2023-02-17T16:06:14;4.00;;;2.87;;
4686;SDS011;2357;47.316;-1.348;2023-02-17T16:08:40;2.00;;;1.90;;
4686;SDS011;2357;47.316;-1.348;2023-02-17T16:11:07;2.90;;;1.90;;
4686;SDS011;2357;47.316;-1.348;2023-02-17T16:13:37;2.43;;;2.17;;
4686;SDS011;2357;47.316;-1.348;2023-02-17T16:16:03;2.20;;;1.90;;
4686;SDS011;2357;47.316;-1.348;2023-02-17T16:18:38;3.33;;;2.07;;
4686;SDS011;2357;47.316;-1.348;2023-02-17T16:21:04;1.70;;;1.60;;
4686;SDS011;2357;47.316;-1.348;2023-02-17T16:23:30;1.80;;;1.53;;
4686;SDS011;2357;47.316;-1.348;2023-02-17T16:25:55;1.90;;;1.33;;
4686;SDS011;2357;47.316;-1.348;2023-02-17T16:28:24;1.43;;;1.10;;
4686;SDS011;2357;47.316;-1.348;2023-02-17T16:30:49;1.43;;;1.33;;
4686;SDS011;2357;47.316;-1.348;2023-02-17T16:33:15;1.80;;;1.07;;
4686;SDS011;2357;47.316;-1.348;2023-02-17T16:35:41;2.20;;;1.60;;
4686;SDS011;2357;47.316;-1.348;2023-02-17T16:38:11;1.67;;;1.23;;
4686;SDS011;2357;47.316;-1.348;2023-02-17T16:40:46;1.20;;;1.20;;
4686;SDS011;2357;47.316;-1.348;2023-02-17T16:43:14;1.50;;;1.40;;
4686;SDS011;2357;47.316;-1.348;2023-02-17T16:48:18;1.73;;;1.63;;
4686;SDS011;2357;47.316;-1.348;2023-02-17T16:50:45;2.30;;;1.60;;
4686;SDS011;2357;47.316;-1.348;2023-02-17T16:53:11;1.77;;;1.67;;
4686;SDS011;2357;47.316;-1.348;2023-02-17T16:55:38;1.50;;;1.40;;
4686;SDS011;2357;47.316;-1.348;2023-02-17T16:58:08;2.50;;;1.37;;
4686;SDS011;2357;47.316;-1.348;2023-02-17T17:00:40;1.50;;;1.40;;
4686;SDS011;2357;47.316;-1.348;2023-02-17T17:03:07;3.57;;;1.90;;
4686;SDS011;2357;47.316;-1.348;2023-02-17T17:05:33;1.50;;;1.40;;
4686;SDS011;2357;47.316;-1.348;2023-02-17T17:07:59;1.63;;;1.47;;
4686;SDS011;2357;47.316;-1.348;2023-02-17T17:10:26;1.70;;;1.60;;
4686;SDS011;2357;47.316;-1.348;2023-02-17T17:12:53;1.70;;;1.60;;
4686;SDS011;2357;47.316;-1.348;2023-02-17T17:15:19;1.70;;;1.50;;
4686;SDS011;2357;47.316;-1.348;2023-02-17T17:17:56;2.40;;;1.97;;